West Biloxi, Mississippi
Current Conditions -  °F | °C
As of 12:58 PM on Monday 20 Oct 2014 (Local Time) from KBIX Reporting Station
Clear Clear  
Wind Chill: 78°   Ceiling: Unl
Heat Index: 79°   Visibility: 10mi
Dew Point: 52°   Wind: 5mph
Humidity: 40%   Direction: 360°N
Pressure: 30.03"   Gusts: NA
Location:  30.4026°N, 88.9677°W
Report Text: KBIX 201758Z AUTO 36004KT 10SM CLR 26/11 A3003 RMK AO2 SLP172 T02560110 10256 20111 58014
Loading
Personal Weather Stations






























Interactive Weather Map
Tropical Storm Tracking
New forecast layout! Learn more

10-Day Weather Forecast

Advertisements
Track Severe Weather on mobile